createdAt,value
2019-04-30T00:00:45.639Z,2.90
2019-04-30T00:03:22.273Z,3.00
2019-04-30T00:05:53.822Z,3.17
2019-04-30T00:08:29.835Z,3.10
2019-04-30T00:10:57.190Z,2.90
2019-04-30T00:13:27.845Z,3.10
2019-04-30T00:16:01.512Z,3.27
2019-04-30T00:18:30.865Z,3.27
2019-04-30T00:21:02.153Z,2.77
2019-04-30T00:23:32.605Z,3.57
2019-04-30T00:26:06.261Z,3.17
2019-04-30T00:28:35.582Z,2.93
2019-04-30T00:31:06.816Z,2.57
2019-04-30T00:33:36.659Z,2.67
2019-04-30T00:36:08.478Z,2.93
2019-04-30T00:38:38.312Z,3.13
2019-04-30T00:41:10.229Z,2.70
2019-04-30T00:43:46.801Z,2.73
2019-04-30T00:46:12.503Z,2.70
2019-04-30T00:48:42.733Z,2.83
2019-04-30T00:51:20.593Z,3.23
2019-04-30T00:53:51.378Z,3.20
2019-04-30T00:56:19.964Z,2.67
2019-04-30T00:58:51.097Z,3.10
2019-04-30T01:01:47.659Z,2.90
2019-04-30T01:04:24.659Z,3.50
2019-04-30T01:06:59.900Z,3.00
2019-04-30T01:09:26.373Z,3.40
2019-04-30T01:11:56.273Z,3.07
2019-04-30T01:14:32.008Z,3.30
2019-04-30T01:17:03.732Z,3.20
2019-04-30T01:19:32.865Z,3.50
2019-04-30T01:22:06.536Z,3.03
2019-04-30T01:24:38.701Z,3.20
2019-04-30T01:27:10.611Z,2.97
2019-04-30T01:29:44.132Z,3.40
2019-04-30T01:32:17.477Z,3.60
2019-04-30T01:34:44.227Z,3.37
2019-04-30T01:37:15.677Z,3.20
2019-04-30T01:39:45.669Z,3.40
2019-04-30T01:42:15.841Z,3.57
2019-04-30T01:44:50.379Z,3.93
2019-04-30T01:47:21.477Z,3.50
2019-04-30T01:49:49.567Z,3.17
2019-04-30T01:52:19.997Z,3.33
2019-04-30T01:54:49.736Z,3.23
2019-04-30T01:57:36.283Z,3.47
2019-04-30T02:00:15.307Z,3.30
2019-04-30T02:02:45.885Z,3.10
2019-04-30T02:05:15.721Z,2.93
2019-04-30T02:07:48.557Z,3.13
2019-04-30T02:10:19.989Z,3.67
2019-04-30T02:12:50.465Z,3.17
2019-04-30T02:15:20.937Z,3.10
2019-04-30T02:17:50.845Z,2.70
2019-04-30T02:20:21.499Z,3.00
2019-04-30T02:22:51.965Z,2.80
2019-04-30T02:25:22.294Z,3.00
2019-04-30T02:27:54.251Z,2.77
2019-04-30T02:30:24.250Z,2.43
2019-04-30T02:32:55.194Z,2.77
2019-04-30T02:35:50.183Z,2.80
2019-04-30T02:38:30.107Z,2.53
2019-04-30T02:40:59.705Z,3.30
2019-04-30T02:43:30.422Z,2.97
2019-04-30T02:46:03.361Z,2.50
2019-04-30T02:48:35.037Z,2.40
2019-04-30T02:51:06.574Z,2.33
2019-04-30T02:53:54.520Z,2.53
2019-04-30T02:56:29.880Z,2.37
2019-04-30T02:59:00.403Z,2.17
2019-04-30T03:01:31.230Z,2.07
2019-04-30T03:04:01.716Z,1.90
2019-04-30T03:06:32.757Z,2.20
2019-04-30T03:09:06.259Z,2.20
2019-04-30T03:11:36.258Z,2.77
2019-04-30T03:14:06.050Z,2.07
2019-04-30T03:17:01.329Z,2.20
2019-04-30T03:19:52.523Z,1.97
2019-04-30T03:22:25.882Z,1.90
2019-04-30T03:24:55.732Z,2.07
2019-04-30T03:27:29.980Z,2.30
2019-04-30T03:30:00.124Z,2.33
2019-04-30T03:32:35.795Z,2.00
2019-04-30T03:35:03.761Z,2.13
2019-04-30T03:37:34.804Z,2.00
2019-04-30T03:40:04.494Z,2.10
2019-04-30T03:42:36.382Z,1.67
2019-04-30T03:45:06.965Z,2.20
2019-04-30T03:47:43.289Z,2.27
2019-04-30T03:50:12.012Z,2.10
2019-04-30T03:52:42.441Z,3.03
2019-04-30T03:55:12.140Z,1.97
2019-04-30T03:57:42.551Z,2.30
2019-04-30T04:00:14.680Z,2.30
2019-04-30T04:02:50.134Z,2.40
2019-04-30T04:05:29.977Z,2.63
2019-04-30T04:08:19.443Z,2.67
2019-04-30T04:11:10.160Z,2.43
2019-04-30T04:13:40.613Z,2.27
2019-04-30T04:16:10.955Z,2.63
2019-04-30T04:18:41.482Z,2.80
2019-04-30T04:21:16.649Z,2.20
2019-04-30T04:23:43.341Z,2.53
2019-04-30T04:26:14.297Z,2.47
2019-04-30T04:28:44.449Z,3.23
2019-04-30T04:31:15.355Z,2.67
2019-04-30T04:33:45.853Z,2.40
2019-04-30T04:36:15.819Z,2.33
2019-04-30T04:38:45.621Z,1.97
2019-04-30T04:41:15.897Z,5.33
2019-04-30T04:43:46.797Z,5.97
2019-04-30T04:46:17.313Z,3.60
2019-04-30T04:48:49.444Z,2.60
2019-04-30T04:51:36.801Z,2.70
2019-04-30T04:53:52.209Z,2.57
2019-04-30T04:56:22.156Z,2.83
2019-04-30T04:58:52.170Z,4.00
2019-04-30T05:01:22.089Z,3.50
2019-04-30T05:03:53.083Z,3.00
2019-04-30T05:06:22.873Z,2.80
2019-04-30T05:08:53.481Z,2.40
2019-04-30T05:11:23.988Z,3.33
2019-04-30T05:13:54.988Z,2.43
2019-04-30T05:16:25.082Z,3.23
2019-04-30T05:18:55.073Z,2.00
2019-04-30T05:21:25.633Z,2.07
2019-04-30T05:23:55.599Z,2.27
2019-04-30T05:26:26.266Z,2.83
2019-04-30T05:28:56.621Z,2.10
2019-04-30T05:31:28.952Z,2.93
2019-04-30T05:33:59.705Z,2.90
2019-04-30T05:36:30.132Z,2.10
2019-04-30T05:38:59.798Z,2.53
2019-04-30T05:41:29.532Z,2.30
2019-04-30T05:43:59.401Z,3.20
2019-04-30T05:46:30.047Z,2.87
2019-04-30T05:48:59.596Z,2.63
2019-04-30T05:51:30.496Z,2.50
2019-04-30T05:54:00.925Z,2.40
2019-04-30T05:56:30.846Z,2.63
2019-04-30T05:59:01.851Z,2.47
2019-04-30T06:01:32.282Z,2.30
2019-04-30T06:04:03.289Z,2.00
2019-04-30T06:06:34.345Z,2.10
2019-04-30T06:09:14.947Z,1.73
2019-04-30T06:12:10.842Z,2.10
2019-04-30T06:14:49.888Z,1.90
2019-04-30T06:17:20.061Z,2.40
2019-04-30T06:19:51.692Z,2.20
2019-04-30T06:22:23.197Z,2.10
2019-04-30T06:24:53.547Z,2.13
2019-04-30T06:27:24.567Z,2.30
2019-04-30T06:29:58.418Z,2.07
2019-04-30T06:32:29.880Z,1.87
2019-04-30T06:35:01.185Z,1.97
2019-04-30T06:37:31.567Z,2.10
2019-04-30T06:40:02.073Z,1.90
2019-04-30T06:42:32.982Z,1.80
2019-04-30T06:45:04.493Z,1.90
2019-04-30T06:47:34.581Z,1.87
2019-04-30T06:50:05.209Z,2.00
2019-04-30T06:52:36.218Z,1.90
2019-04-30T06:55:06.810Z,1.70
2019-04-30T06:57:38.392Z,2.40
2019-04-30T07:00:09.865Z,1.70
2019-04-30T07:02:39.929Z,1.90
2019-04-30T07:05:10.205Z,1.87
2019-04-30T07:08:08.901Z,1.90
2019-04-30T07:10:35.025Z,1.70
2019-04-30T07:13:23.621Z,1.63
2019-04-30T07:15:53.542Z,2.20
2019-04-30T07:18:23.881Z,2.00
2019-04-30T07:20:54.894Z,1.90
2019-04-30T07:23:24.749Z,2.00
2019-04-30T07:25:55.157Z,1.93
2019-04-30T07:28:41.201Z,1.87
2019-04-30T07:31:10.183Z,1.80
2019-04-30T07:33:30.596Z,2.30
2019-04-30T07:36:01.796Z,2.03
2019-04-30T07:38:35.743Z,2.10
2019-04-30T07:41:04.186Z,1.77
2019-04-30T07:43:33.896Z,1.80
2019-04-30T07:46:05.345Z,2.13
2019-04-30T07:48:35.802Z,2.27
2019-04-30T07:51:05.720Z,1.90
2019-04-30T07:53:35.989Z,1.80
2019-04-30T07:56:23.597Z,1.80
2019-04-30T07:58:39.076Z,1.83
2019-04-30T08:01:10.575Z,2.37
2019-04-30T08:03:59.677Z,2.23
2019-04-30T08:06:31.223Z,2.27
2019-04-30T08:09:01.753Z,1.97
2019-04-30T08:11:34.340Z,2.03
2019-04-30T08:14:05.472Z,2.50
2019-04-30T08:16:35.593Z,2.07
2019-04-30T08:19:06.037Z,1.97
2019-04-30T08:21:38.237Z,2.07
2019-04-30T08:24:09.272Z,1.97
2019-04-30T08:26:39.745Z,2.93
2019-04-30T08:29:10.974Z,2.10
2019-04-30T08:34:35.049Z,2.13
2019-04-30T08:37:16.993Z,2.40
2019-04-30T08:39:55.194Z,2.40
2019-04-30T08:42:31.765Z,2.30
2019-04-30T08:44:58.579Z,2.30
2019-04-30T08:47:29.264Z,2.60
2019-04-30T08:50:02.406Z,2.30
2019-04-30T08:52:31.350Z,2.60
2019-04-30T08:55:13.268Z,2.30
2019-04-30T08:57:34.490Z,1.90
2019-04-30T09:00:04.685Z,2.20
2019-04-30T09:02:35.061Z,2.53
2019-04-30T09:05:09.473Z,3.13
2019-04-30T09:07:39.222Z,2.33
2019-04-30T09:10:09.785Z,2.37
2019-04-30T09:12:40.705Z,2.10
2019-04-30T09:15:10.938Z,2.70
2019-04-30T09:17:58.151Z,2.60
2019-04-30T09:20:19.316Z,2.90
2019-04-30T09:22:49.678Z,2.50
2019-04-30T09:25:20.825Z,2.70
2019-04-30T09:27:51.257Z,2.67
2019-04-30T09:30:21.510Z,2.50
2019-04-30T09:32:51.962Z,2.90
2019-04-30T09:35:22.450Z,2.47
2019-04-30T09:37:59.027Z,2.40
2019-04-30T09:40:24.245Z,2.43
2019-04-30T09:42:55.300Z,2.40
2019-04-30T09:45:25.785Z,2.40
2019-04-30T09:47:55.450Z,2.47
2019-04-30T09:50:25.951Z,2.80
2019-04-30T09:53:00.221Z,2.20
2019-04-30T09:55:31.138Z,2.57
2019-04-30T09:58:08.694Z,2.77
2019-04-30T10:00:33.121Z,2.77
2019-04-30T10:03:04.722Z,3.20
2019-04-30T10:05:35.293Z,2.77
2019-04-30T10:08:06.147Z,2.53
2019-04-30T10:10:41.906Z,2.33
2019-04-30T10:13:11.758Z,2.67
2019-04-30T10:15:52.737Z,3.00
2019-04-30T10:18:22.364Z,3.30
2019-04-30T10:20:52.025Z,2.75
2019-04-30T10:23:21.933Z,2.37
2019-04-30T10:25:51.809Z,3.03
2019-04-30T10:28:21.880Z,2.58
2019-04-30T10:30:51.662Z,2.43
2019-04-30T10:33:22.094Z,2.40
2019-04-30T10:35:52.013Z,2.67
2019-04-30T10:38:22.798Z,3.07
2019-04-30T10:40:52.710Z,2.87
2019-04-30T10:43:22.589Z,2.90
2019-04-30T10:45:52.481Z,2.58
2019-04-30T10:48:22.243Z,2.40
2019-04-30T10:50:52.989Z,2.25
2019-04-30T10:53:22.801Z,2.50
2019-04-30T10:55:52.589Z,3.12
2019-04-30T10:58:23.744Z,2.40
2019-04-30T11:00:53.097Z,2.80
2019-04-30T11:03:23.237Z,2.30
2019-04-30T11:05:53.013Z,3.20
2019-04-30T11:08:22.947Z,2.60
2019-04-30T11:10:52.641Z,2.60
2019-04-30T11:13:23.145Z,2.50
2019-04-30T11:15:53.110Z,2.10
2019-04-30T11:18:24.375Z,2.45
2019-04-30T11:20:54.838Z,2.47
2019-04-30T11:23:25.612Z,2.47
2019-04-30T11:25:56.614Z,2.20
2019-04-30T11:28:29.210Z,2.35
2019-04-30T11:31:33.049Z,2.02
2019-04-30T11:34:02.962Z,3.87
2019-04-30T11:36:33.269Z,3.70
2019-04-30T11:39:04.540Z,4.28
2019-04-30T11:41:34.573Z,3.62
2019-04-30T11:44:05.684Z,4.30
2019-04-30T11:46:39.289Z,4.00
2019-04-30T11:49:09.723Z,4.42
2019-04-30T11:51:41.499Z,4.10
2019-04-30T11:54:12.925Z,4.00
2019-04-30T11:56:42.649Z,4.23
2019-04-30T11:59:12.505Z,5.70
2019-04-30T12:01:43.074Z,4.70
2019-04-30T12:04:13.561Z,4.67
2019-04-30T12:06:43.545Z,4.47
2019-04-30T12:09:21.137Z,4.80
2019-04-30T12:11:50.960Z,5.20
2019-04-30T12:14:21.427Z,4.93
2019-04-30T12:16:51.905Z,4.47
2019-04-30T12:19:21.773Z,4.77
2019-04-30T12:21:55.028Z,4.27
2019-04-30T12:24:24.809Z,3.33
2019-04-30T12:26:55.022Z,3.80
2019-04-30T12:29:25.465Z,3.57
2019-04-30T12:31:55.049Z,4.23
2019-04-30T12:34:25.955Z,3.90
2019-04-30T12:36:55.244Z,3.87
2019-04-30T12:39:25.725Z,3.47
2019-04-30T12:41:56.345Z,3.40
2019-04-30T12:44:26.826Z,3.30
2019-04-30T12:46:58.185Z,3.37
2019-04-30T12:49:30.142Z,3.27
2019-04-30T12:52:25.213Z,3.03
2019-04-30T12:54:59.605Z,2.90
2019-04-30T12:57:56.468Z,3.13
2019-04-30T13:00:16.971Z,3.30
2019-04-30T13:02:46.920Z,2.90
2019-04-30T13:05:18.829Z,3.20
2019-04-30T13:07:50.113Z,3.50
2019-04-30T13:10:21.436Z,3.37
2019-04-30T13:12:52.833Z,3.63
2019-04-30T13:15:24.224Z,3.63
2019-04-30T13:17:53.662Z,4.20
2019-04-30T13:20:24.642Z,3.27
2019-04-30T13:22:54.637Z,3.50
2019-04-30T13:25:32.414Z,3.50
2019-04-30T13:28:03.758Z,3.47
2019-04-30T13:30:33.645Z,3.33
2019-04-30T13:33:11.985Z,3.00
2019-04-30T13:35:42.294Z,3.20
2019-04-30T13:38:17.961Z,2.67
2019-04-30T13:41:20.185Z,3.30
2019-04-30T13:44:19.487Z,3.30
2019-04-30T13:46:50.521Z,2.93
2019-04-30T13:49:21.164Z,3.63
2019-04-30T13:51:51.044Z,3.60
2019-04-30T13:54:21.220Z,3.50
2019-04-30T13:56:51.024Z,2.97
2019-04-30T13:59:20.737Z,3.70
2019-04-30T14:01:51.167Z,4.00
2019-04-30T14:04:45.846Z,3.97
2019-04-30T14:07:40.329Z,3.40
2019-04-30T14:10:10.442Z,4.40
2019-04-30T14:12:46.069Z,4.07
2019-04-30T14:15:19.210Z,4.27
2019-04-30T14:17:49.516Z,8.43
2019-04-30T14:20:19.961Z,3.77
2019-04-30T14:22:49.906Z,3.20
2019-04-30T14:25:21.463Z,3.37
2019-04-30T14:27:54.601Z,3.67
2019-04-30T14:30:23.088Z,3.50
2019-04-30T14:32:55.301Z,3.60
2019-04-30T14:35:26.070Z,3.27
2019-04-30T14:37:55.799Z,3.90
2019-04-30T14:40:26.007Z,3.73
2019-04-30T14:43:19.771Z,4.60
2019-04-30T14:46:07.772Z,3.37
2019-04-30T14:48:44.116Z,4.10
2019-04-30T14:51:14.701Z,3.05
2019-04-30T14:54:15.256Z,3.10
2019-04-30T14:57:07.478Z,3.90
2019-04-30T14:59:51.619Z,3.73
2019-04-30T15:02:25.139Z,3.40
2019-04-30T15:04:55.121Z,3.42
2019-04-30T15:07:25.033Z,4.07
2019-04-30T15:09:55.417Z,3.50
2019-04-30T15:12:25.637Z,3.80
2019-04-30T15:14:55.385Z,3.50
2019-04-30T15:17:25.245Z,3.77
2019-04-30T15:19:55.705Z,3.58
2019-04-30T15:22:25.905Z,3.70
2019-04-30T15:24:56.193Z,4.33
2019-04-30T15:27:28.979Z,3.83
2019-04-30T15:29:59.865Z,3.33
2019-04-30T15:32:29.773Z,3.47
2019-04-30T15:35:00.314Z,4.00
2019-04-30T15:37:30.889Z,3.60
2019-04-30T15:40:00.753Z,3.58
2019-04-30T15:42:30.637Z,3.40
2019-04-30T15:45:00.669Z,3.20
2019-04-30T15:47:31.329Z,3.52
2019-04-30T15:50:02.164Z,2.98
2019-04-30T15:52:32.787Z,3.55
2019-04-30T15:55:03.142Z,3.00
2019-04-30T15:57:33.697Z,2.72
2019-04-30T16:00:06.939Z,2.60
2019-04-30T16:02:57.326Z,2.60
2019-04-30T16:05:34.219Z,2.80
2019-04-30T16:08:32.359Z,2.60
2019-04-30T16:11:24.004Z,2.98
2019-04-30T16:14:18.681Z,3.30
2019-04-30T16:19:55.138Z,3.10
2019-04-30T16:22:24.696Z,2.75
2019-04-30T16:24:55.737Z,3.10
2019-04-30T16:27:25.600Z,3.08
2019-04-30T16:29:55.754Z,3.02
2019-04-30T16:32:28.844Z,3.45
2019-04-30T16:34:59.325Z,3.30
2019-04-30T16:37:29.545Z,2.87
2019-04-30T16:40:00.009Z,2.95
2019-04-30T16:42:30.121Z,3.47
2019-04-30T16:45:00.885Z,3.27
2019-04-30T16:47:31.580Z,3.85
2019-04-30T16:50:02.301Z,3.33
2019-04-30T16:52:32.090Z,3.45
2019-04-30T16:55:01.492Z,3.20
2019-04-30T16:57:31.833Z,3.30
2019-04-30T17:00:01.626Z,3.55
2019-04-30T17:02:32.196Z,4.12
2019-04-30T17:05:08.529Z,3.90
2019-04-30T17:07:56.987Z,3.40
2019-04-30T17:11:03.889Z,4.15
2019-04-30T17:13:39.012Z,3.55
2019-04-30T17:16:20.598Z,3.77
2019-04-30T17:18:51.132Z,3.27
2019-04-30T17:21:21.754Z,3.30
2019-04-30T17:23:52.869Z,3.70
2019-04-30T17:26:22.759Z,3.90
2019-04-30T17:28:53.717Z,3.60
2019-04-30T17:31:23.344Z,3.33
2019-04-30T17:33:52.640Z,3.20
2019-04-30T17:36:23.464Z,3.08
2019-04-30T17:38:53.381Z,3.12
2019-04-30T17:41:23.116Z,3.27
2019-04-30T17:43:53.558Z,3.47
2019-04-30T17:46:23.369Z,3.80
2019-04-30T17:48:53.501Z,3.13
2019-04-30T17:51:24.498Z,3.43
2019-04-30T17:54:11.869Z,3.43
2019-04-30T17:56:41.748Z,2.83
2019-04-30T17:59:11.286Z,3.30
2019-04-30T18:01:42.279Z,2.80
2019-04-30T18:04:12.089Z,2.70
2019-04-30T18:06:42.433Z,3.20
2019-04-30T18:09:12.587Z,3.67
2019-04-30T18:11:42.298Z,2.80
2019-04-30T18:14:12.176Z,2.80
2019-04-30T18:16:42.945Z,2.90
2019-04-30T18:19:38.617Z,3.17
2019-04-30T18:22:20.546Z,3.47
2019-04-30T18:25:05.645Z,3.57
2019-04-30T18:27:49.486Z,3.13
2019-04-30T18:30:21.101Z,5.20
2019-04-30T18:32:51.125Z,5.97
2019-04-30T18:35:21.977Z,6.13
2019-04-30T18:37:51.885Z,6.30
2019-04-30T18:40:21.849Z,4.90
2019-04-30T18:42:51.698Z,5.63
2019-04-30T18:45:21.442Z,6.60
2019-04-30T18:47:51.833Z,6.07
2019-04-30T18:50:24.725Z,6.60
2019-04-30T18:52:56.353Z,6.00
2019-04-30T18:55:28.247Z,5.93
2019-04-30T18:58:01.302Z,5.33
2019-04-30T19:00:40.225Z,4.77
2019-04-30T19:03:10.457Z,3.83
2019-04-30T19:05:42.509Z,3.30
2019-04-30T19:08:19.445Z,2.90
2019-04-30T19:11:08.990Z,3.03
2019-04-30T19:13:57.213Z,3.83
2019-04-30T19:16:44.453Z,3.87
2019-04-30T19:19:36.021Z,4.20
2019-04-30T19:22:05.927Z,5.40
2019-04-30T19:24:35.859Z,6.03
2019-04-30T19:27:08.583Z,6.00
2019-04-30T19:29:38.617Z,5.30
2019-04-30T19:32:09.432Z,6.30
2019-04-30T19:34:39.261Z,6.00
2019-04-30T19:37:10.297Z,5.33
2019-04-30T19:39:40.513Z,5.00
2019-04-30T19:42:10.425Z,5.37
2019-04-30T19:44:42.934Z,5.70
2019-04-30T19:47:13.265Z,4.87
2019-04-30T19:49:43.152Z,4.63
2019-04-30T19:52:14.137Z,4.80
2019-04-30T19:54:48.747Z,4.10
2019-04-30T19:57:19.408Z,4.40
2019-04-30T19:59:49.311Z,4.77
2019-04-30T20:02:21.782Z,4.20
2019-04-30T20:04:51.930Z,4.63
2019-04-30T20:07:23.253Z,4.40
2019-04-30T20:10:02.794Z,5.27
2019-04-30T20:12:25.237Z,4.37
2019-04-30T20:14:55.317Z,4.43
2019-04-30T20:17:26.570Z,4.27
2019-04-30T20:19:58.924Z,4.17
2019-04-30T20:22:29.251Z,4.67
2019-04-30T20:24:59.376Z,4.10
2019-04-30T20:27:30.071Z,4.13
2019-04-30T20:29:59.864Z,3.63
2019-04-30T20:32:36.273Z,4.43
2019-04-30T20:35:01.048Z,3.70
2019-04-30T20:37:30.700Z,4.13
2019-04-30T20:40:05.521Z,4.10
2019-04-30T20:42:35.293Z,3.63
2019-04-30T20:45:05.323Z,3.40
2019-04-30T20:47:36.533Z,3.37
2019-04-30T20:50:06.457Z,3.27
2019-04-30T20:52:36.333Z,3.70
2019-04-30T20:55:06.874Z,3.70
2019-04-30T20:57:36.777Z,3.43
2019-04-30T21:00:07.209Z,3.70
2019-04-30T21:02:38.669Z,3.60
2019-04-30T21:05:09.297Z,3.53
2019-04-30T21:07:39.676Z,3.50
2019-04-30T21:10:10.287Z,3.60
2019-04-30T21:12:40.004Z,3.27
2019-04-30T21:15:10.525Z,3.70
2019-04-30T21:17:41.397Z,3.40
2019-04-30T21:20:11.325Z,3.70
2019-04-30T21:22:41.130Z,3.47
2019-04-30T21:25:12.432Z,3.57
2019-04-30T21:27:43.943Z,3.33
2019-04-30T21:30:13.841Z,3.10
2019-04-30T21:33:01.052Z,2.90
2019-04-30T21:35:45.840Z,4.00
2019-04-30T21:38:16.104Z,2.87
2019-04-30T21:40:46.521Z,3.37
2019-04-30T21:43:16.325Z,3.23
2019-04-30T21:45:46.585Z,3.00
2019-04-30T21:48:16.500Z,3.37
2019-04-30T21:50:46.409Z,3.20
2019-04-30T21:53:16.736Z,3.10
2019-04-30T21:55:49.666Z,2.80
2019-04-30T21:58:20.471Z,3.00
2019-04-30T22:01:13.841Z,3.30
2019-04-30T22:03:45.334Z,3.97
2019-04-30T22:06:15.676Z,3.07
2019-04-30T22:08:46.017Z,2.93
2019-04-30T22:11:15.745Z,3.10
2019-04-30T22:13:46.070Z,3.17
2019-04-30T22:16:21.367Z,2.93
2019-04-30T22:18:51.865Z,3.10
2019-04-30T22:21:22.965Z,3.43
2019-04-30T22:23:52.708Z,3.00
2019-04-30T22:26:22.972Z,3.40
2019-04-30T22:28:52.645Z,2.60
2019-04-30T22:31:23.612Z,3.00
2019-04-30T22:33:54.581Z,3.37
2019-04-30T22:36:38.824Z,3.67
2019-04-30T22:39:29.875Z,3.00
2019-04-30T22:42:21.527Z,2.80
2019-04-30T22:44:51.445Z,3.60
2019-04-30T22:47:22.297Z,2.87
2019-04-30T22:49:52.749Z,3.10
2019-04-30T22:52:22.753Z,3.10
2019-04-30T22:54:52.384Z,2.87
2019-04-30T22:57:22.001Z,3.00
2019-04-30T22:59:51.636Z,2.93
2019-04-30T23:02:30.869Z,2.97
2019-04-30T23:05:02.051Z,3.33
2019-04-30T23:07:32.017Z,3.17
2019-04-30T23:10:02.492Z,3.33
2019-04-30T23:12:32.509Z,3.37
2019-04-30T23:15:03.709Z,3.17
2019-04-30T23:17:36.161Z,3.30
2019-04-30T23:20:08.827Z,2.90
2019-04-30T23:22:40.569Z,3.17
2019-04-30T23:25:10.705Z,3.37
2019-04-30T23:27:40.525Z,3.13
2019-04-30T23:30:13.692Z,3.20
2019-04-30T23:32:44.086Z,3.23
2019-04-30T23:35:14.676Z,3.30
2019-04-30T23:37:44.901Z,3.07
2019-04-30T23:40:28.091Z,3.27
2019-04-30T23:42:58.009Z,3.20
2019-04-30T23:45:27.901Z,3.70
2019-04-30T23:47:58.116Z,3.10
2019-04-30T23:50:28.464Z,3.00
2019-04-30T23:52:58.268Z,3.40
2019-04-30T23:55:28.480Z,3.30
2019-04-30T23:57:58.443Z,3.40
